PWSweather.com
Personal Weather Stations
Station Observations
KVAGLENALL
West Henrico, Glen Allen, VA 23060-6503

West HenricoGlen Allen, VA 23060-6503

Lat: 37.6554, Lon: -77.5693

Elevation: 273

Station Type: Davis Vantage Pro II

www.glenallenweather.com

High Low Average
Temperature 78.6°F25.9°F 44.4°F6.9°F 60.3°F15.7°F
Dew Point 59.7°F15.4°F 43.1°F6.2°F 52.3°F11.3°F
Winds 8.1 mph NE13.0 mph NE 0.1 mph 0.2 mph 1.0 mph 1.6 mph
Wind Gusts 9.1 mph14.6 mph 0.1 mph0.2 mph 1.7 mph2.7 mph
Humidity 97% 48% 78%
Pressure 30.27 in1025.10 in 30.17 in1021.70 in -
Precipitation 0.00 in0.00 in - -
Hour Temp Dew Point Humidity Winds Wind Gusts Pressure Precip Precip Rate Daily Precip Total
12:00 AM 50.3°F10.2°C 47.1°F8.4°C 89% 0.1 mph S0.2 kmh S 0.1 mph0.2 kmh 30.19 in1022.4 mb 0.00 in0.0 mm 0.00 in0.0 mm 0.00 in0.0 mm
12:15 AM 50.0°F10.0°C 46.8°F8.2°C 89% 0.1 mph S0.2 kmh S 0.1 mph0.2 kmh 30.18 in1022.0 mb 0.00 in0.0 mm 0.00 in0.0 mm 0.00 in0.0 mm
12:30 AM 49.8°F9.9°C 46.6°F8.1°C 89% 0.1 mph S0.2 kmh S 0.1 mph0.2 kmh 30.18 in1022.0 mb 0.00 in0.0 mm 0.00 in0.0 mm 0.00 in0.0 mm
12:45 AM 49.7°F9.8°C 46.8°F8.2°C 90% 0.1 mph S0.2 kmh S 0.1 mph0.2 kmh 30.18 in1022.0 mb 0.00 in0.0 mm 0.00 in0.0 mm 0.00 in0.0 mm
01:00 AM 49.1°F9.5°C 46.9°F8.3°C 92% 1.0 mph S1.6 kmh S 1.1 mph1.8 kmh 30.19 in1022.4 mb 0.00 in0.0 mm 0.00 in0.0 mm 0.00 in0.0 mm
01:15 AM 49.0°F9.4°C 46.8°F8.2°C 92% 1.0 mph S1.6 kmh S 1.1 mph1.8 kmh 30.18 in1022.0 mb 0.00 in0.0 mm 0.00 in0.0 mm 0.00 in0.0 mm
01:30 AM 49.2°F9.6°C 47.0°F8.3°C 92% 1.0 mph S1.6 kmh S 2.1 mph3.4 kmh 30.18 in1022.0 mb 0.00 in0.0 mm 0.00 in0.0 mm 0.00 in0.0 mm
01:45 AM 49.1°F9.5°C 46.9°F8.3°C 92% 2.0 mph SSW3.2 kmh SSW 3.1 mph5.0 kmh 30.18 in1022.0 mb 0.00 in0.0 mm 0.00 in0.0 mm 0.00 in0.0 mm
02:00 AM 49.2°F9.6°C 46.7°F8.2°C 91% 1.0 mph SSW1.6 kmh SSW 2.1 mph3.4 kmh 30.18 in1022.0 mb 0.00 in0.0 mm 0.00 in0.0 mm 0.00 in0.0 mm
02:15 AM 49.0°F9.4°C 46.2°F7.9°C 90% 1.0 mph SSW1.6 kmh SSW 1.1 mph1.8 kmh 30.18 in1022.0 mb 0.00 in0.0 mm 0.00 in0.0 mm 0.00 in0.0 mm
02:30 AM 48.4°F9.1°C 45.9°F7.7°C 91% 0.1 mph SSW0.2 kmh SSW 0.1 mph0.2 kmh 30.17 in1021.7 mb 0.00 in0.0 mm 0.00 in0.0 mm 0.00 in0.0 mm
02:45 AM 48.3°F9.1°C 46.1°F7.8°C 92% 0.1 mph SSW0.2 kmh SSW 0.1 mph0.2 kmh 30.18 in1022.0 mb 0.00 in0.0 mm 0.00 in0.0 mm 0.00 in0.0 mm
03:00 AM 48.2°F9.0°C 46.0°F7.8°C 92% 0.1 mph SSW0.2 kmh SSW 0.1 mph0.2 kmh 30.18 in1022.0 mb 0.00 in0.0 mm 0.00 in0.0 mm 0.00 in0.0 mm
03:15 AM 47.8°F8.8°C 45.6°F7.6°C 92% 0.1 mph SSW0.2 kmh SSW 0.1 mph0.2 kmh 30.17 in1021.7 mb 0.00 in0.0 mm 0.00 in0.0 mm 0.00 in0.0 mm
03:30 AM 47.5°F8.6°C 45.3°F7.4°C 92% 0.1 mph SSW0.2 kmh SSW 1.1 mph1.8 kmh 30.18 in1022.0 mb 0.00 in0.0 mm 0.00 in0.0 mm 0.00 in0.0 mm
03:45 AM 47.2°F8.4°C 45.0°F7.2°C 92% 0.1 mph SSW0.2 kmh SSW 0.1 mph0.2 kmh 30.18 in1022.0 mb 0.00 in0.0 mm 0.00 in0.0 mm 0.00 in0.0 mm
04:00 AM 46.8°F8.2°C 44.6°F7.0°C 92% 0.1 mph SSW0.2 kmh SSW 0.1 mph0.2 kmh 30.18 in1022.0 mb 0.00 in0.0 mm 0.00 in0.0 mm 0.00 in0.0 mm
04:15 AM 46.4°F8.0°C 44.5°F6.9°C 93% 0.1 mph SSW0.2 kmh SSW 0.1 mph0.2 kmh 30.18 in1022.0 mb 0.00 in0.0 mm 0.00 in0.0 mm 0.00 in0.0 mm
04:30 AM 46.1°F7.8°C 44.2°F6.8°C 93% 0.1 mph SSW0.2 kmh SSW 0.1 mph0.2 kmh 30.18 in1022.0 mb 0.00 in0.0 mm 0.00 in0.0 mm 0.00 in0.0 mm
04:45 AM 45.9°F7.7°C 44.0°F6.7°C 93% 0.1 mph SSW0.2 kmh SSW 0.1 mph0.2 kmh 30.19 in1022.4 mb 0.00 in0.0 mm 0.00 in0.0 mm 0.00 in0.0 mm
05:00 AM 46.2°F7.9°C 44.6°F7.0°C 94% 0.1 mph SSW0.2 kmh SSW 0.1 mph0.2 kmh 30.19 in1022.4 mb 0.00 in0.0 mm 0.00 in0.0 mm 0.00 in0.0 mm
05:15 AM 46.0°F7.8°C 44.4°F6.9°C 94% 0.1 mph SSW0.2 kmh SSW 0.1 mph0.2 kmh 30.20 in1022.7 mb 0.00 in0.0 mm 0.00 in0.0 mm 0.00 in0.0 mm
05:30 AM 45.5°F7.5°C 43.9°F6.6°C 94% 0.1 mph SSW0.2 kmh SSW 0.1 mph0.2 kmh 30.20 in1022.7 mb 0.00 in0.0 mm 0.00 in0.0 mm 0.00 in0.0 mm
05:45 AM 45.2°F7.3°C 43.6°F6.4°C 94% 0.1 mph SSW0.2 kmh SSW 0.1 mph0.2 kmh 30.21 in1023.0 mb 0.00 in0.0 mm 0.00 in0.0 mm 0.00 in0.0 mm
06:00 AM 45.1°F7.3°C 43.5°F6.4°C 94% 0.1 mph SSW0.2 kmh SSW 0.1 mph0.2 kmh 30.21 in1023.0 mb 0.00 in0.0 mm 0.00 in0.0 mm 0.00 in0.0 mm
06:15 AM 45.0°F7.2°C 43.4°F6.3°C 94% 0.1 mph SSW0.2 kmh SSW 0.1 mph0.2 kmh 30.22 in1023.4 mb 0.00 in0.0 mm 0.00 in0.0 mm 0.00 in0.0 mm
06:30 AM 45.0°F7.2°C 43.7°F6.5°C 95% 1.0 mph SSW1.6 kmh SSW 1.1 mph1.8 kmh 30.22 in1023.4 mb 0.00 in0.0 mm 0.00 in0.0 mm 0.00 in0.0 mm
06:45 AM 44.9°F7.2°C 43.6°F6.4°C 95% 0.1 mph SSW0.2 kmh SSW 0.1 mph0.2 kmh 30.23 in1023.7 mb 0.00 in0.0 mm 0.00 in0.0 mm 0.00 in0.0 mm
07:00 AM 44.7°F7.1°C 43.4°F6.3°C 95% 0.1 mph SSW0.2 kmh SSW 0.1 mph0.2 kmh 30.23 in1023.7 mb 0.00 in0.0 mm 0.00 in0.0 mm 0.00 in0.0 mm
07:15 AM 44.4°F6.9°C 43.1°F6.2°C 95% 0.1 mph SSW0.2 kmh SSW 0.1 mph0.2 kmh 30.23 in1023.7 mb 0.00 in0.0 mm 0.00 in0.0 mm 0.00 in0.0 mm
07:30 AM 44.5°F6.9°C 43.2°F6.2°C 95% 0.1 mph SSW0.2 kmh SSW 0.1 mph0.2 kmh 30.23 in1023.7 mb 0.00 in0.0 mm 0.00 in0.0 mm 0.00 in0.0 mm
07:45 AM 44.6°F7.0°C 43.3°F6.3°C 95% 1.0 mph SSW1.6 kmh SSW 1.1 mph1.8 kmh 30.24 in1024.0 mb 0.00 in0.0 mm 0.00 in0.0 mm 0.00 in0.0 mm
08:00 AM 45.3°F7.4°C 44.3°F6.8°C 96% 0.1 mph SSW0.2 kmh SSW 1.1 mph1.8 kmh 30.25 in1024.4 mb 0.00 in0.0 mm 0.00 in0.0 mm 0.00 in0.0 mm
08:15 AM 46.0°F7.8°C 45.0°F7.2°C 96% 0.1 mph SW0.2 kmh SW 0.1 mph0.2 kmh 30.25 in1024.4 mb 0.00 in0.0 mm 0.00 in0.0 mm 0.00 in0.0 mm
08:30 AM 47.4°F8.6°C 46.4°F8.0°C 96% 0.1 mph E0.2 kmh E 0.1 mph0.2 kmh 30.25 in1024.4 mb 0.00 in0.0 mm 0.00 in0.0 mm 0.00 in0.0 mm
08:45 AM 51.0°F10.6°C 50.1°F10.1°C 97% 0.1 mph ESE0.2 kmh ESE 0.1 mph0.2 kmh 30.26 in1024.7 mb 0.00 in0.0 mm 0.00 in0.0 mm 0.00 in0.0 mm
09:00 AM 53.8°F12.1°C 52.1°F11.2°C 94% 0.1 mph ESE0.2 kmh ESE 0.1 mph0.2 kmh 30.26 in1024.7 mb 0.00 in0.0 mm 0.00 in0.0 mm 0.00 in0.0 mm
09:15 AM 56.8°F13.8°C 53.3°F11.8°C 88% 0.1 mph E0.2 kmh E 0.1 mph0.2 kmh 30.26 in1024.7 mb 0.00 in0.0 mm 0.00 in0.0 mm 0.00 in0.0 mm
09:30 AM 59.6°F15.3°C 53.8°F12.1°C 81% 0.1 mph NE0.2 kmh NE 2.1 mph3.4 kmh 30.27 in1025.1 mb 0.00 in0.0 mm 0.00 in0.0 mm 0.00 in0.0 mm
09:45 AM 61.9°F16.6°C 55.3°F12.9°C 79% 0.1 mph NNW0.2 kmh NNW 1.1 mph1.8 kmh 30.27 in1025.1 mb 0.00 in0.0 mm 0.00 in0.0 mm 0.00 in0.0 mm
10:00 AM 64.7°F18.2°C 55.5°F13.1°C 72% 0.1 mph N0.2 kmh N 1.1 mph1.8 kmh 30.27 in1025.1 mb 0.00 in0.0 mm 0.00 in0.0 mm 0.00 in0.0 mm
10:15 AM 67.1°F19.5°C 55.4°F13.0°C 66% 0.1 mph NNE0.2 kmh NNE 1.1 mph1.8 kmh 30.27 in1025.1 mb 0.00 in0.0 mm 0.00 in0.0 mm 0.00 in0.0 mm
10:30 AM 68.4°F20.2°C 54.9°F12.7°C 62% 1.0 mph N1.6 kmh N 1.1 mph1.8 kmh 30.27 in1025.1 mb 0.00 in0.0 mm 0.00 in0.0 mm 0.00 in0.0 mm
10:45 AM 70.1°F21.2°C 55.5°F13.1°C 60% 0.1 mph NW0.2 kmh NW 2.1 mph3.4 kmh 30.27 in1025.1 mb 0.00 in0.0 mm 0.00 in0.0 mm 0.00 in0.0 mm
11:00 AM 71.2°F21.8°C 56.1°F13.4°C 59% 3.0 mph N4.8 kmh N 5.1 mph8.2 kmh 30.27 in1025.1 mb 0.00 in0.0 mm 0.00 in0.0 mm 0.00 in0.0 mm
11:15 AM 72.7°F22.6°C 56.6°F13.7°C 57% 4.1 mph N6.6 kmh N 5.1 mph8.2 kmh 30.26 in1024.7 mb 0.00 in0.0 mm 0.00 in0.0 mm 0.00 in0.0 mm
11:30 AM 73.5°F23.1°C 56.8°F13.8°C 56% 0.1 mph NNE0.2 kmh NNE 6.1 mph9.8 kmh 30.27 in1025.1 mb 0.00 in0.0 mm 0.00 in0.0 mm 0.00 in0.0 mm
11:45 AM 74.9°F23.8°C 59.6°F15.3°C 59% 4.1 mph NNW6.6 kmh NNW 8.1 mph13.0 kmh 30.27 in1025.1 mb 0.00 in0.0 mm 0.00 in0.0 mm 0.00 in0.0 mm
12:00 PM 75.4°F24.1°C 58.1°F14.5°C 55% 3.0 mph NE4.8 kmh NE 9.1 mph14.6 kmh 30.26 in1024.7 mb 0.00 in0.0 mm 0.00 in0.0 mm 0.00 in0.0 mm
12:15 PM 75.7°F24.3°C 57.9°F14.4°C 54% 3.0 mph N4.8 kmh N 5.1 mph8.2 kmh 30.26 in1024.7 mb 0.00 in0.0 mm 0.00 in0.0 mm 0.00 in0.0 mm
12:30 PM 76.2°F24.6°C 56.8°F13.8°C 51% 2.0 mph NNE3.2 kmh NNE 8.1 mph13.0 kmh 30.25 in1024.4 mb 0.00 in0.0 mm 0.00 in0.0 mm 0.00 in0.0 mm
12:45 PM 76.4°F24.7°C 57.5°F14.2°C 52% 5.1 mph N8.2 kmh N 8.1 mph13.0 kmh 30.25 in1024.4 mb 0.00 in0.0 mm 0.00 in0.0 mm 0.00 in0.0 mm
01:00 PM 76.9°F24.9°C 59.0°F15.0°C 54% 0.1 mph NNW0.2 kmh NNW 6.1 mph9.8 kmh 30.24 in1024.0 mb 0.00 in0.0 mm 0.00 in0.0 mm 0.00 in0.0 mm
01:15 PM 78.2°F25.7°C 59.7°F15.4°C 53% 5.1 mph NNW8.2 kmh NNW 5.1 mph8.2 kmh 30.24 in1024.0 mb 0.00 in0.0 mm 0.00 in0.0 mm 0.00 in0.0 mm
01:30 PM 78.1°F25.6°C 59.1°F15.1°C 52% 3.0 mph NNE4.8 kmh NNE 5.1 mph8.2 kmh 30.23 in1023.7 mb 0.00 in0.0 mm 0.00 in0.0 mm 0.00 in0.0 mm
01:45 PM 78.5°F25.8°C 58.3°F14.6°C 50% 6.1 mph NE9.8 kmh NE 9.1 mph14.6 kmh 30.22 in1023.4 mb 0.00 in0.0 mm 0.00 in0.0 mm 0.00 in0.0 mm
02:00 PM 78.1°F25.6°C 58.5°F14.7°C 51% 1.0 mph NNE1.6 kmh NNE 4.1 mph6.6 kmh 30.22 in1023.4 mb 0.00 in0.0 mm 0.00 in0.0 mm 0.00 in0.0 mm
02:15 PM 78.0°F25.6°C 57.9°F14.4°C 50% 2.0 mph NW3.2 kmh NW 5.1 mph8.2 kmh 30.21 in1023.0 mb 0.00 in0.0 mm 0.00 in0.0 mm 0.00 in0.0 mm
02:30 PM 78.6°F25.9°C 57.9°F14.4°C 49% 3.0 mph N4.8 kmh N 4.1 mph6.6 kmh 30.21 in1023.0 mb 0.00 in0.0 mm 0.00 in0.0 mm 0.00 in0.0 mm
02:45 PM 78.5°F25.8°C 58.3°F14.6°C 50% 7.1 mph NNE11.4 kmh NNE 7.1 mph11.4 kmh 30.21 in1023.0 mb 0.00 in0.0 mm 0.00 in0.0 mm 0.00 in0.0 mm
03:00 PM 78.5°F25.8°C 57.8°F14.3°C 49% 8.1 mph NE13.0 kmh NE 8.1 mph13.0 kmh 30.20 in1022.7 mb 0.00 in0.0 mm 0.00 in0.0 mm 0.00 in0.0 mm
03:15 PM 78.4°F25.8°C 57.1°F13.9°C 48% 3.0 mph NE4.8 kmh NE 3.1 mph5.0 kmh 30.19 in1022.4 mb 0.00 in0.0 mm 0.00 in0.0 mm 0.00 in0.0 mm
03:30 PM 77.9°F25.5°C 57.2°F14.0°C 49% 3.0 mph N4.8 kmh N 3.1 mph5.0 kmh 30.19 in1022.4 mb 0.00 in0.0 mm 0.00 in0.0 mm 0.00 in0.0 mm
03:45 PM 77.8°F25.4°C 58.8°F14.9°C 52% 1.0 mph NW1.6 kmh NW 2.1 mph3.4 kmh 30.19 in1022.4 mb 0.00 in0.0 mm 0.00 in0.0 mm 0.00 in0.0 mm
04:00 PM 77.2°F25.1°C 57.7°F14.3°C 51% 3.0 mph N4.8 kmh N 4.1 mph6.6 kmh 30.19 in1022.4 mb 0.00 in0.0 mm 0.00 in0.0 mm 0.00 in0.0 mm
04:15 PM 76.7°F24.8°C 57.2°F14.0°C 51% 6.1 mph NE9.8 kmh NE 8.1 mph13.0 kmh 30.19 in1022.4 mb 0.00 in0.0 mm 0.00 in0.0 mm 0.00 in0.0 mm
04:30 PM 76.1°F24.5°C 57.2°F14.0°C 52% 0.1 mph W0.2 kmh W 2.1 mph3.4 kmh 30.19 in1022.4 mb 0.00 in0.0 mm 0.00 in0.0 mm 0.00 in0.0 mm
04:45 PM 75.5°F24.2°C 57.7°F14.3°C 54% 2.0 mph W3.2 kmh W 2.1 mph3.4 kmh 30.19 in1022.4 mb 0.00 in0.0 mm 0.00 in0.0 mm 0.00 in0.0 mm
05:00 PM 74.1°F23.4°C 59.3°F15.2°C 60% 0.1 mph NNW0.2 kmh NNW 0.1 mph0.2 kmh 30.19 in1022.4 mb 0.00 in0.0 mm 0.00 in0.0 mm 0.00 in0.0 mm
05:15 PM 72.7°F22.6°C 58.9°F14.9°C 62% 0.1 mph NNE0.2 kmh NNE 0.1 mph0.2 kmh 30.19 in1022.4 mb 0.00 in0.0 mm 0.00 in0.0 mm 0.00 in0.0 mm
05:30 PM 71.7°F22.1°C 58.4°F14.7°C 63% 1.0 mph NNE1.6 kmh NNE 1.1 mph1.8 kmh 30.19 in1022.4 mb 0.00 in0.0 mm 0.00 in0.0 mm 0.00 in0.0 mm
05:45 PM 70.9°F21.6°C 58.5°F14.7°C 65% 0.1 mph N0.2 kmh N 0.1 mph0.2 kmh 30.19 in1022.4 mb 0.00 in0.0 mm 0.00 in0.0 mm 0.00 in0.0 mm
06:00 PM 69.9°F21.1°C 58.4°F14.7°C 67% 0.1 mph N0.2 kmh N 0.1 mph0.2 kmh 30.19 in1022.4 mb 0.00 in0.0 mm 0.00 in0.0 mm 0.00 in0.0 mm
06:15 PM 68.6°F20.3°C 57.7°F14.3°C 68% 0.1 mph N0.2 kmh N 0.1 mph0.2 kmh 30.19 in1022.4 mb 0.00 in0.0 mm 0.00 in0.0 mm 0.00 in0.0 mm
06:30 PM 67.5°F19.7°C 57.8°F14.3°C 71% 0.1 mph N0.2 kmh N 0.1 mph0.2 kmh 30.20 in1022.7 mb 0.00 in0.0 mm 0.00 in0.0 mm 0.00 in0.0 mm
06:45 PM 66.2°F19.0°C 57.7°F14.3°C 74% 0.1 mph N0.2 kmh N 0.1 mph0.2 kmh 30.20 in1022.7 mb 0.00 in0.0 mm 0.00 in0.0 mm 0.00 in0.0 mm
07:00 PM 65.2°F18.4°C 57.1°F13.9°C 75% 0.1 mph N0.2 kmh N 0.1 mph0.2 kmh 30.20 in1022.7 mb 0.00 in0.0 mm 0.00 in0.0 mm 0.00 in0.0 mm
07:15 PM 64.2°F17.9°C 57.2°F14.0°C 78% 0.1 mph N0.2 kmh N 0.1 mph0.2 kmh 30.21 in1023.0 mb 0.00 in0.0 mm 0.00 in0.0 mm 0.00 in0.0 mm
07:30 PM 63.5°F17.5°C 56.9°F13.8°C 79% 0.1 mph N0.2 kmh N 0.1 mph0.2 kmh 30.21 in1023.0 mb 0.00 in0.0 mm 0.00 in0.0 mm 0.00 in0.0 mm
07:45 PM 62.7°F17.1°C 56.5°F13.6°C 80% 0.1 mph N0.2 kmh N 0.1 mph0.2 kmh 30.22 in1023.4 mb 0.00 in0.0 mm 0.00 in0.0 mm 0.00 in0.0 mm
08:00 PM 62.2°F16.8°C 56.7°F13.7°C 82% 0.1 mph N0.2 kmh N 1.1 mph1.8 kmh 30.22 in1023.4 mb 0.00 in0.0 mm 0.00 in0.0 mm 0.00 in0.0 mm
08:15 PM 61.4°F16.3°C 56.5°F13.6°C 84% 0.1 mph N0.2 kmh N 0.1 mph0.2 kmh 30.22 in1023.4 mb 0.00 in0.0 mm 0.00 in0.0 mm 0.00 in0.0 mm
08:30 PM 60.6°F15.9°C 56.1°F13.4°C 85% 0.1 mph N0.2 kmh N 0.1 mph0.2 kmh 30.23 in1023.7 mb 0.00 in0.0 mm 0.00 in0.0 mm 0.00 in0.0 mm
08:45 PM 60.3°F15.7°C 56.1°F13.4°C 86% 0.1 mph N0.2 kmh N 0.1 mph0.2 kmh 30.23 in1023.7 mb 0.00 in0.0 mm 0.00 in0.0 mm 0.00 in0.0 mm
09:00 PM 59.9°F15.5°C 55.7°F13.2°C 86% 0.1 mph N0.2 kmh N 1.1 mph1.8 kmh 30.23 in1023.7 mb 0.00 in0.0 mm 0.00 in0.0 mm 0.00 in0.0 mm
09:15 PM 59.1°F15.1°C 55.2°F12.9°C 87% 0.1 mph N0.2 kmh N 0.1 mph0.2 kmh 30.23 in1023.7 mb 0.00 in0.0 mm 0.00 in0.0 mm 0.00 in0.0 mm
09:30 PM 58.7°F14.8°C 55.2°F12.9°C 88% 0.1 mph N0.2 kmh N 0.1 mph0.2 kmh 30.23 in1023.7 mb 0.00 in0.0 mm 0.00 in0.0 mm 0.00 in0.0 mm
09:45 PM 58.7°F14.8°C 55.2°F12.9°C 88% 0.1 mph N0.2 kmh N 0.1 mph0.2 kmh 30.24 in1024.0 mb 0.00 in0.0 mm 0.00 in0.0 mm 0.00 in0.0 mm
10:00 PM 58.3°F14.6°C 54.8°F12.7°C 88% 0.1 mph N0.2 kmh N 1.1 mph1.8 kmh 30.24 in1024.0 mb 0.00 in0.0 mm 0.00 in0.0 mm 0.00 in0.0 mm
10:15 PM 58.0°F14.4°C 54.2°F12.3°C 87% 0.1 mph N0.2 kmh N 1.1 mph1.8 kmh 30.24 in1024.0 mb 0.00 in0.0 mm 0.00 in0.0 mm 0.00 in0.0 mm
10:30 PM 57.4°F14.1°C 53.9°F12.2°C 88% 0.1 mph N0.2 kmh N 0.1 mph0.2 kmh 30.25 in1024.4 mb 0.00 in0.0 mm 0.00 in0.0 mm 0.00 in0.0 mm
10:45 PM 56.9°F13.8°C 53.7°F12.1°C 89% 0.1 mph N0.2 kmh N 0.1 mph0.2 kmh 30.25 in1024.4 mb 0.00 in0.0 mm 0.00 in0.0 mm 0.00 in0.0 mm
11:00 PM 56.3°F13.5°C 53.1°F11.7°C 89% 0.1 mph N0.2 kmh N 0.1 mph0.2 kmh 30.26 in1024.7 mb 0.00 in0.0 mm 0.00 in0.0 mm 0.00 in0.0 mm
11:15 PM 56.0°F13.3°C 53.1°F11.7°C 90% 0.1 mph N0.2 kmh N 0.1 mph0.2 kmh 30.26 in1024.7 mb 0.00 in0.0 mm 0.00 in0.0 mm 0.00 in0.0 mm
11:30 PM 55.9°F13.3°C 53.0°F11.7°C 90% 0.1 mph N0.2 kmh N 0.1 mph0.2 kmh 30.26 in1024.7 mb 0.00 in0.0 mm 0.00 in0.0 mm 0.00 in0.0 mm
11:45 PM 55.4°F13.0°C 52.8°F11.6°C 91% 0.1 mph N0.2 kmh N 0.1 mph0.2 kmh 30.26 in1024.7 mb 0.00 in0.0 mm 0.00 in0.0 mm 0.00 in0.0 mm